Time;durP1;ratioP1;P1;durP2;ratioP2;P2;SDS_P1;SDS_P2;PMS_P1;PMS_P2;Temp;Humidity;BMP_temperature;BMP_pressure;BME280_temperature;BME280_humidity;BME280_pressure;Samples;Min_cycle;Max_cycle;Signal;HPM_P1;HPM_P2
2022/01/22 00:00:38;;;;;;;;;16.00;15.80;;;;;;;;5266687;28;8805;-67
2022/01/22 00:03:09;;;;;;;;;16.50;16.50;;;;;;;;5267710;28;8782;-66
2022/01/22 00:05:41;;;;;;;;;19.20;19.20;;;;;;;;5249616;28;11447;-66
2022/01/22 00:08:12;;;;;;;;;17.20;17.20;;;;;;;;5249364;28;9497;-67
2022/01/22 00:10:44;;;;;;;;;22.60;19.60;;;;;;;;5249487;28;8806;-68
2022/01/22 00:15:49;;;;;;;;;19.80;19.80;;;;;;;;5232699;28;8838;-67
2022/01/22 00:18:21;;;;;;;;;23.00;19.40;;;;;;;;5267030;28;8813;-68
2022/01/22 00:20:52;;;;;;;;;17.60;17.60;;;;;;;;5249244;28;9575;-68
2022/01/22 00:23:26;;;;;;;;;22.00;21.00;;;;;;;;5249474;28;8813;-68
2022/01/22 00:25:57;;;;;;;;;12.20;11.80;;;;;;;;5248985;28;8775;-68
2022/01/22 00:28:28;;;;;;;;;14.40;14.40;;;;;;;;5267241;28;8885;-69
2022/01/22 00:30:59;;;;;;;;;23.00;23.00;;;;;;;;5265976;28;8913;-68
2022/01/22 00:33:49;;;;;;;;;26.20;25.00;;;;;;;;5273317;28;11873;-68
2022/01/22 00:36:20;;;;;;;;;19.20;18.80;;;;;;;;5256142;28;8794;-69
2022/01/22 00:38:51;;;;;;;;;18.00;17.60;;;;;;;;5274547;28;8887;-69
2022/01/22 00:41:23;;;;;;;;;13.00;13.00;;;;;;;;5273564;28;8810;-69
2022/01/22 00:43:54;;;;;;;;;16.40;14.60;;;;;;;;5255623;28;8852;-69
2022/01/22 00:46:25;;;;;;;;;9.80;9.60;;;;;;;;5256074;28;8909;-69
2022/01/22 00:49:15;;;;;;;;;12.40;12.00;;;;;;;;5274217;28;8759;-69
2022/01/22 00:51:46;;;;;;;;;3.60;3.60;;;;;;;;5274254;28;8855;-67
2022/01/22 00:54:20;;;;;;;;;9.60;9.60;;;;;;;;5273745;28;8793;-65
2022/01/22 00:56:51;;;;;;;;;13.40;13.40;;;;;;;;5274003;28;8787;-66
2022/01/22 00:59:23;;;;;;;;;12.20;10.40;;;;;;;;5255914;28;8876;-66
2022/01/22 01:02:12;;;;;;;;;17.20;15.60;;;;;;;;5256371;28;8879;-66
2022/01/22 01:04:44;;;;;;;;;19.25;18.00;;;;;;;;5255745;28;8802;-67
2022/01/22 01:07:16;;;;;;;;;29.00;26.80;;;;;;;;5273683;28;9456;-67
2022/01/22 01:09:47;;;;;;;;;24.60;24.40;;;;;;;;5256754;28;8774;-67
2022/01/22 01:12:18;;;;;;;;;24.00;21.00;;;;;;;;5273215;28;8783;-68
2022/01/22 01:15:10;;;;;;;;;31.80;31.80;;;;;;;;5239535;28;8897;-67
2022/01/22 01:32:13;;;;;;;;;33.75;32.00;;;;;;;;5272190;28;8766;-67
2022/01/22 01:34:46;;;;;;;;;29.60;29.60;;;;;;;;5273425;28;8832;-67
2022/01/22 01:37:19;;;;;;;;;13.40;13.00;;;;;;;;5272218;28;8806;-67
2022/01/22 01:39:59;;;;;;;;;18.20;17.80;;;;;;;;5255582;28;8863;-67
2022/01/22 01:45:13;;;;;;;;;6.20;5.20;;;;;;;;5252521;28;9497;-67
2022/01/22 01:48:07;;;;;;;;;11.20;10.80;;;;;;;;5270575;28;8791;-67
2022/01/22 01:50:41;;;;;;;;;10.00;10.00;;;;;;;;5269378;28;8779;-68
2022/01/22 01:57:24;;;;;;;;;11.20;10.00;;;;;;;;5270048;28;8771;-67
2022/01/22 01:58:55;;;;;;;;;12.60;12.60;;;;;;;;5235191;28;9481;-67
2022/01/22 02:01:27;;;;;;;;;10.20;10.20;;;;;;;;5235315;28;8829;-67
2022/01/22 02:03:58;;;;;;;;;14.60;14.60;;;;;;;;5269687;28;8758;-67
2022/01/22 02:06:30;;;;;;;;;12.60;11.60;;;;;;;;5268835;28;8801;-67
2022/01/22 02:09:06;;;;;;;;;17.80;16.20;;;;;;;;5270481;28;8776;-67
2022/01/22 02:12:05;;;;;;;;;17.00;16.00;;;;;;;;5269542;28;8919;-67
2022/01/22 02:23:56;;;;;;;;;18.60;18.60;;;;;;;;5251265;28;8802;-66
2022/01/22 02:26:29;;;;;;;;;10.80;10.80;;;;;;;;5268218;28;8782;-67
2022/01/22 02:29:01;;;;;;;;;12.20;12.20;;;;;;;;5235231;28;8786;-68
2022/01/22 02:32:15;;;;;;;;;13.60;12.00;;;;;;;;5233534;28;8779;-68
2022/01/22 02:35:10;;;;;;;;;12.40;12.40;;;;;;;;5251357;28;8797;-68
2022/01/22 02:37:50;;;;;;;;;13.80;12.60;;;;;;;;5250775;28;9650;-68
2022/01/22 02:40:46;;;;;;;;;7.40;7.40;;;;;;;;5268775;28;8798;-68
2022/01/22 02:43:19;;;;;;;;;4.00;4.00;;;;;;;;5268137;28;8773;-68
2022/01/22 02:45:51;;;;;;;;;4.60;4.60;;;;;;;;5250647;28;8767;-67
2022/01/22 02:48:22;;;;;;;;;10.40;10.40;;;;;;;;5251244;28;8815;-66
2022/01/22 02:50:53;;;;;;;;;10.80;10.80;;;;;;;;5250692;28;8783;-66
2022/01/22 02:53:24;;;;;;;;;26.00;24.80;;;;;;;;5250922;28;8806;-67
2022/01/22 02:55:56;;;;;;;;;10.60;10.00;;;;;;;;5266739;28;8787;-68
2022/01/22 02:58:29;;;;;;;;;6.80;6.80;;;;;;;;5251061;28;9478;-68
2022/01/22 03:01:01;;;;;;;;;14.00;13.60;;;;;;;;5267974;28;9576;-68
2022/01/22 03:03:33;;;;;;;;;4.60;2.20;;;;;;;;5267586;28;8778;-68
2022/01/22 03:06:04;;;;;;;;;7.00;7.00;;;;;;;;5267457;28;8814;-68
2022/01/22 03:08:38;;;;;;;;;10.40;10.40;;;;;;;;5267143;28;8771;-68
2022/01/22 03:11:19;;;;;;;;;6.00;4.40;;;;;;;;5234095;28;8845;-67
2022/01/22 03:19:12;;;;;;;;;9.80;9.00;;;;;;;;5268339;28;8783;-67
2022/01/22 03:22:15;;;;;;;;;31.67;30.67;;;;;;;;5267797;28;8798;-67
2022/01/22 03:27:36;;;;;;;;;12.20;10.80;;;;;;;;5250542;28;8908;-66
2022/01/22 03:30:09;;;;;;;;;16.60;15.60;;;;;;;;5250040;28;8791;-67
2022/01/22 03:32:45;;;;;;;;;15.00;12.80;;;;;;;;5250175;28;8774;-67
2022/01/22 03:35:35;;;;;;;;;18.60;18.60;;;;;;;;5268787;28;8845;-67
2022/01/22 03:38:07;;;;;;;;;18.80;18.80;;;;;;;;5249557;28;8883;-68
2022/01/22 03:40:38;;;;;;;;;11.80;11.80;;;;;;;;5249795;28;8830;-67
2022/01/22 03:43:09;;;;;;;;;19.00;18.20;;;;;;;;5217195;28;9450;-67
2022/01/22 03:45:40;;;;;;;;;44.33;27.00;;;;;;;;5233051;28;8794;-67
2022/01/22 03:48:11;;;;;;;;;21.00;20.60;;;;;;;;5249905;28;9514;-67
2022/01/22 03:50:43;;;;;;;;;24.40;20.40;;;;;;;;5266768;28;9480;-68
2022/01/22 03:53:14;;;;;;;;;15.80;15.00;;;;;;;;5266573;28;8841;-68
2022/01/22 03:56:05;;;;;;;;;13.60;11.40;;;;;;;;5249873;28;8786;-68
2022/01/22 03:58:41;;;;;;;;;7.80;6.80;;;;;;;;5249850;28;8771;-68
2022/01/22 04:09:56;;;;;;;;;22.80;19.80;;;;;;;;5266330;28;8786;-67
2022/01/22 04:12:38;;;;;;;;;22.80;21.60;;;;;;;;5249850;28;8909;-67
2022/01/22 04:15:11;;;;;;;;;18.00;17.60;;;;;;;;5232921;28;8827;-67
2022/01/22 04:26:11;;;;;;;;;12.00;12.00;;;;;;;;5265993;28;8797;-67
2022/01/22 04:28:43;;;;;;;;;11.20;7.60;;;;;;;;5267455;28;8747;-67
2022/01/22 04:31:15;;;;;;;;;23.20;21.60;;;;;;;;5248888;28;8779;-67
2022/01/22 04:33:46;;;;;;;;;36.00;30.75;;;;;;;;5232383;28;8786;-67
2022/01/22 04:36:18;;;;;;;;;18.60;15.00;;;;;;;;5249023;28;12092;-67
2022/01/22 04:38:51;;;;;;;;;19.60;19.60;;;;;;;;5266299;28;8810;-67
2022/01/22 04:41:22;;;;;;;;;14.20;13.80;;;;;;;;5267807;28;9474;-67
2022/01/22 04:43:58;;;;;;;;;19.40;17.60;;;;;;;;5249098;28;8775;-67
2022/01/22 04:54:59;;;;;;;;;11.80;11.80;;;;;;;;5249070;28;8778;-66
2022/01/22 04:57:33;;;;;;;;;18.00;18.00;;;;;;;;5266214;28;8778;-66
2022/01/22 05:00:08;;;;;;;;;20.80;20.80;;;;;;;;5266997;28;8903;-66
2022/01/22 05:02:59;;;;;;;;;16.40;15.80;;;;;;;;5266659;28;9478;-66
2022/01/22 05:05:49;;;;;;;;;67.50;56.25;;;;;;;;5266970;28;8775;-66
2022/01/22 05:08:30;;;;;;;;;33.80;31.40;;;;;;;;5248944;28;8763;-66
2022/01/22 05:11:20;;;;;;;;;24.60;24.40;;;;;;;;5248877;28;9557;-66
2022/01/22 05:13:53;;;;;;;;;17.80;17.80;;;;;;;;5248614;28;8790;-66
2022/01/22 05:16:43;;;;;;;;;23.00;22.40;;;;;;;;5267046;28;8779;-66
2022/01/22 05:19:24;;;;;;;;;18.00;18.00;;;;;;;;5248584;28;8799;-66
2022/01/22 05:22:09;;;;;;;;;34.60;33.60;;;;;;;;5236053;28;8802;-67
2022/01/22 05:24:45;;;;;;;;;38.00;33.50;;;;;;;;5253111;28;8771;-69
2022/01/22 05:36:55;;;;;;;;;36.80;30.20;;;;;;;;5252835;28;8849;-69
2022/01/22 05:39:37;;;;;;;;;40.00;37.50;;;;;;;;5252827;28;8786;-69
2022/01/22 05:42:11;;;;;;;;;53.75;47.75;;;;;;;;5247772;28;8829;-72
2022/01/22 05:45:00;;;;;;;;;28.60;23.80;;;;;;;;5254925;28;9572;-69
2022/01/22 05:47:56;;;;;;;;;44.50;41.50;;;;;;;;5234880;28;8817;-69
2022/01/22 05:50:36;;;;;;;;;55.75;46.00;;;;;;;;5252593;28;9477;-71
2022/01/22 05:53:41;;;;;;;;;42.40;38.40;;;;;;;;5254913;28;8763;-71
2022/01/22 06:04:56;;;;;;;;;27.00;25.60;;;;;;;;5270033;28;8707;-72
2022/01/22 06:07:27;;;;;;;;;20.40;20.20;;;;;;;;5251572;28;8805;-72
2022/01/22 06:15:21;;;;;;;;;12.80;10.40;;;;;;;;5251979;28;8774;-71
2022/01/22 06:18:10;;;;;;;;;36.40;35.20;;;;;;;;5251859;28;9445;-71
2022/01/22 06:20:42;;;;;;;;;30.20;30.20;;;;;;;;5218301;28;8897;-71
2022/01/22 06:23:14;;;;;;;;;25.40;24.80;;;;;;;;5251252;28;8782;-71
2022/01/22 06:25:45;;;;;;;;;22.40;22.00;;;;;;;;5252113;28;8842;-72
2022/01/22 06:28:16;;;;;;;;;19.20;16.60;;;;;;;;5251162;28;8770;-73
2022/01/22 06:30:49;;;;;;;;;40.00;39.00;;;;;;;;5250988;28;8787;-71
2022/01/22 06:33:24;;;;;;;;;43.20;39.60;;;;;;;;5218615;28;8774;-72
2022/01/22 06:35:56;;;;;;;;;44.00;43.50;;;;;;;;5234429;28;8779;-71
2022/01/22 06:38:28;;;;;;;;;67.50;53.00;;;;;;;;5251262;28;8831;-71
2022/01/22 06:41:47;;;;;;;;;61.50;52.50;;;;;;;;5268519;28;8813;-71
2022/01/22 06:44:42;;;;;;;;;33.50;28.00;;;;;;;;5238003;28;8787;-72
2022/01/22 06:47:32;;;;;;;;;48.25;45.25;;;;;;;;5254250;28;8879;-71
2022/01/22 06:50:26;;;;;;;;;32.20;30.60;;;;;;;;5267687;28;8794;-71
2022/01/22 06:53:09;;;;;;;;;26.00;26.00;;;;;;;;5251044;28;8774;-71
2022/01/22 06:55:58;;;;;;;;;32.80;31.40;;;;;;;;5235485;28;8885;-71
2022/01/22 06:58:34;;;;;;;;;34.20;33.40;;;;;;;;5235090;28;8798;-71
2022/01/22 07:01:09;;;;;;;;;35.80;35.80;;;;;;;;5217878;28;9567;-71
2022/01/22 07:03:55;;;;;;;;;31.20;30.60;;;;;;;;5250729;28;8790;-71
2022/01/22 07:06:44;;;;;;;;;80.25;64.25;;;;;;;;5253702;28;8805;-71
2022/01/22 07:09:15;;;;;;;;;51.50;47.75;;;;;;;;5250265;28;8791;-70
2022/01/22 07:12:06;;;;;;;;;49.80;46.40;;;;;;;;5268635;28;9560;-71
2022/01/22 07:14:38;;;;;;;;;45.40;42.00;;;;;;;;5250916;28;8770;-70
2022/01/22 07:17:11;;;;;;;;;23.60;21.00;;;;;;;;5251186;28;9478;-71
2022/01/22 07:19:51;;;;;;;;;26.80;26.20;;;;;;;;5251041;28;8754;-71
2022/01/22 07:22:38;;;;;;;;;20.20;19.60;;;;;;;;5218623;28;8883;-72
2022/01/22 07:25:35;;;;;;;;;27.20;26.40;;;;;;;;5248436;28;8887;-72
2022/01/22 07:28:18;;;;;;;;;27.20;26.60;;;;;;;;5250548;28;8766;-71
2022/01/22 07:31:09;;;;;;;;;25.60;24.20;;;;;;;;5252941;28;8786;-72
2022/01/22 07:33:43;;;;;;;;;34.40;32.60;;;;;;;;5249875;28;8782;-73
2022/01/22 07:36:16;;;;;;;;;21.40;21.00;;;;;;;;5250511;28;8791;-74
2022/01/22 07:38:48;;;;;;;;;25.00;24.40;;;;;;;;5249820;28;8813;-71
2022/01/22 07:41:19;;;;;;;;;26.60;23.20;;;;;;;;5217560;28;9512;-72
2022/01/22 07:44:10;;;;;;;;;30.60;28.80;;;;;;;;5266607;28;8774;-69
2022/01/22 07:46:50;;;;;;;;;34.80;33.20;;;;;;;;5234420;28;8773;-69
2022/01/22 07:49:26;;;;;;;;;25.00;25.00;;;;;;;;5249881;28;8804;-69
2022/01/22 07:52:05;;;;;;;;;28.00;27.60;;;;;;;;5249680;28;8791;-70
2022/01/22 07:54:36;;;;;;;;;22.80;22.80;;;;;;;;5249931;28;8791;-70
2022/01/22 07:57:25;;;;;;;;;16.80;16.60;;;;;;;;5252092;28;8791;-69
2022/01/22 08:00:01;;;;;;;;;23.00;20.00;;;;;;;;5233742;28;8840;-69
2022/01/22 08:02:50;;;;;;;;;19.00;19.00;;;;;;;;5249786;28;8799;-69
2022/01/22 08:06:00;;;;;;;;;27.40;25.20;;;;;;;;5233264;28;8883;-69
2022/01/22 08:08:57;;;;;;;;;28.60;27.40;;;;;;;;5214005;28;9567;-71
2022/01/22 08:12:07;;;;;;;;;17.00;16.40;;;;;;;;5241302;28;8787;-69
2022/01/22 08:14:39;;;;;;;;;24.00;22.20;;;;;;;;5216206;28;8793;-69
2022/01/22 08:17:11;;;;;;;;;16.60;15.20;;;;;;;;5249252;28;8790;-68
2022/01/22 08:19:42;;;;;;;;;15.00;15.00;;;;;;;;5216413;28;9375;-70
2022/01/22 08:22:34;;;;;;;;;18.40;16.80;;;;;;;;5249008;28;8818;-69
2022/01/22 08:25:30;;;;;;;;;10.60;10.60;;;;;;;;5263589;28;8783;-69
2022/01/22 08:31:02;;;;;;;;;39.20;37.60;;;;;;;;5249273;28;9561;-69
2022/01/22 08:35:52;;;;;;;;;45.40;41.60;;;;;;;;5249198;28;9454;-69
2022/01/22 08:36:25;;;;;;;;;49.00;45.40;;;;;;;;5242284;28;8790;-68
2022/01/22 08:38:56;;;;;;;;;58.25;51.75;;;;;;;;5211778;28;8808;-68
2022/01/22 08:41:30;;;;;;;;;65.50;52.00;;;;;;;;5244756;28;8808;-69
2022/01/22 08:44:19;;;;;;;;;41.40;39.60;;;;;;;;5246088;28;8777;-68
2022/01/22 08:46:51;;;;;;;;;46.60;43.20;;;;;;;;5248254;28;8874;-69
2022/01/22 08:49:25;;;;;;;;;23.60;21.60;;;;;;;;5215901;28;8778;-69
2022/01/22 08:52:16;;;;;;;;;39.00;37.40;;;;;;;;5252321;28;8820;-69
2022/01/22 08:55:06;;;;;;;;;28.40;27.80;;;;;;;;5252138;28;8852;-69
2022/01/22 08:57:37;;;;;;;;;22.20;21.80;;;;;;;;5252702;28;8871;-69
2022/01/22 09:00:17;;;;;;;;;35.40;33.80;;;;;;;;5253001;28;8893;-69
2022/01/22 09:03:01;;;;;;;;;30.00;29.60;;;;;;;;5221876;28;8876;-71
2022/01/22 09:06:08;;;;;;;;;34.40;31.60;;;;;;;;5206654;28;8793;-69
2022/01/22 09:09:10;;;;;;;;;21.20;20.20;;;;;;;;5253486;28;8767;-69
2022/01/22 09:12:05;;;;;;;;;21.60;21.60;;;;;;;;5265273;28;8875;-69
2022/01/22 09:14:43;;;;;;;;;30.00;29.40;;;;;;;;5253511;28;8898;-69
2022/01/22 09:17:15;;;;;;;;;40.20;39.80;;;;;;;;5219564;28;8779;-70
2022/01/22 09:19:47;;;;;;;;;24.80;23.60;;;;;;;;5219698;28;8798;-69
2022/01/22 09:22:22;;;;;;;;;21.00;21.00;;;;;;;;5236756;28;8799;-69
2022/01/22 09:24:55;;;;;;;;;10.80;10.80;;;;;;;;5236712;28;8798;-70
2022/01/22 09:27:28;;;;;;;;;15.00;15.00;;;;;;;;5236129;28;8859;-70
2022/01/22 09:30:00;;;;;;;;;10.40;10.40;;;;;;;;5252719;28;8767;-71
2022/01/22 09:32:31;;;;;;;;;3.00;3.00;;;;;;;;5252761;28;8790;-70
2022/01/22 09:35:19;;;;;;;;;10.80;10.80;;;;;;;;5251827;28;12130;-67
2022/01/22 09:38:13;;;;;;;;;7.00;7.00;;;;;;;;5252067;28;8786;-69
2022/01/22 09:41:03;;;;;;;;;12.00;12.00;;;;;;;;5270915;28;8923;-70
2022/01/22 09:43:53;;;;;;;;;10.00;9.00;;;;;;;;5254800;28;8751;-72
2022/01/22 09:46:33;;;;;;;;;5.20;4.80;;;;;;;;5270260;28;8856;-72
2022/01/22 09:53:39;;;;;;;;;14.20;13.40;;;;;;;;5270072;28;8714;-70
2022/01/22 09:56:31;;;;;;;;;10.40;10.40;;;;;;;;5290048;28;8796;-71
2022/01/22 10:03:49;;;;;;;;;22.00;22.00;;;;;;;;5290591;28;8728;-72
2022/01/22 10:11:21;;;;;;;;;9.40;9.40;;;;;;;;5215909;28;9450;-72
2022/01/22 10:14:10;;;;;;;;;6.60;6.60;;;;;;;;5251714;28;8821;-72
2022/01/22 10:21:16;;;;;;;;;9.80;9.80;;;;;;;;5270334;28;8818;-77
2022/01/22 10:23:48;;;;;;;;;8.20;8.20;;;;;;;;5218760;28;8775;-76
2022/01/22 10:26:20;;;;;;;;;9.00;9.00;;;;;;;;5235371;28;8778;-78
2022/01/22 10:29:10;;;;;;;;;6.60;6.60;;;;;;;;5237247;28;8857;-77
2022/01/22 10:31:42;;;;;;;;;7.00;7.00;;;;;;;;5234716;28;8786;-79
2022/01/22 10:34:48;;;;;;;;;32.60;31.40;;;;;;;;5208836;28;8767;-77
2022/01/22 10:37:37;;;;;;;;;10.00;10.00;;;;;;;;5235886;28;8782;-79
2022/01/22 10:40:22;;;;;;;;;9.00;9.00;;;;;;;;5251346;28;8787;-77
2022/01/22 10:43:12;;;;;;;;;7.00;6.20;;;;;;;;5218892;28;8818;-78
2022/01/22 10:46:31;;;;;;;;;8.00;7.80;;;;;;;;5237557;28;8786;-79
2022/01/22 10:49:10;;;;;;;;;9.20;8.20;;;;;;;;5218589;28;8868;-78
2022/01/22 10:51:54;;;;;;;;;4.40;4.40;;;;;;;;5217877;28;8783;-79
2022/01/22 10:54:33;;;;;;;;;5.60;5.60;;;;;;;;5251903;28;9559;-78
2022/01/22 10:57:11;;;;;;;;;12.80;12.40;;;;;;;;5237139;28;8785;-80
2022/01/22 10:59:46;;;;;;;;;19.80;16.80;;;;;;;;5236965;28;8808;-79
2022/01/22 11:02:18;;;;;;;;;11.80;11.80;;;;;;;;5218294;28;8825;-78
2022/01/22 11:04:49;;;;;;;;;10.80;10.80;;;;;;;;5268235;28;8766;-78
2022/01/22 11:07:38;;;;;;;;;6.80;6.80;;;;;;;;5236818;28;8847;-79
2022/01/22 11:10:09;;;;;;;;;8.20;8.20;;;;;;;;5233777;28;8880;-78
2022/01/22 11:12:42;;;;;;;;;6.00;6.00;;;;;;;;5217602;28;8780;-79
2022/01/22 11:15:13;;;;;;;;;9.60;9.60;;;;;;;;5234083;28;8855;-77
2022/01/22 11:17:45;;;;;;;;;13.60;13.60;;;;;;;;5232945;28;8779;-77
2022/01/22 11:20:16;;;;;;;;;11.20;10.40;;;;;;;;5217663;28;8922;-78
2022/01/22 11:22:48;;;;;;;;;6.00;6.00;;;;;;;;5234105;28;8884;-72
2022/01/22 11:25:19;;;;;;;;;15.00;15.00;;;;;;;;5233956;28;9535;-79
2022/01/22 11:27:51;;;;;;;;;18.00;15.20;;;;;;;;5217794;28;8818;-78
2022/01/22 11:30:25;;;;;;;;;19.40;13.80;;;;;;;;5217331;28;8770;-78
2022/01/22 11:33:02;;;;;;;;;9.20;9.20;;;;;;;;5250332;28;8802;-79
2022/01/22 11:35:33;;;;;;;;;8.20;7.00;;;;;;;;5251260;28;8834;-81
2022/01/22 11:38:06;;;;;;;;;6.80;6.80;;;;;;;;5217415;28;8786;-73
2022/01/22 11:40:37;;;;;;;;;10.80;9.40;;;;;;;;5268633;28;8779;-80
2022/01/22 11:43:12;;;;;;;;;6.80;6.20;;;;;;;;5233810;28;8774;-80
2022/01/22 11:45:55;;;;;;;;;9.40;8.00;;;;;;;;5233382;28;8771;-77
2022/01/22 11:48:32;;;;;;;;;13.00;11.20;;;;;;;;5216978;28;8884;-77
2022/01/22 11:51:22;;;;;;;;;4.80;4.00;;;;;;;;5217737;28;8786;-76
2022/01/22 11:53:55;;;;;;;;;7.00;7.00;;;;;;;;5233780;28;8779;-77
2022/01/22 11:56:30;;;;;;;;;36.20;35.00;;;;;;;;5249274;28;8820;-78
2022/01/22 11:59:03;;;;;;;;;4.00;4.00;;;;;;;;5226916;28;8798;-79
2022/01/22 12:01:40;;;;;;;;;7.80;7.80;;;;;;;;5250160;28;8806;-77
2022/01/22 12:04:33;;;;;;;;;10.40;10.40;;;;;;;;5250501;28;8873;-79
2022/01/22 12:07:04;;;;;;;;;7.20;7.20;;;;;;;;5233533;28;8858;-82
2022/01/22 12:15:41;;;;;;;;;12.40;12.40;;;;;;;;5250645;28;8876;-82
2022/01/22 12:18:33;;;;;;;;;1.00;1.00;;;;;;;;5250316;28;8790;-82
2022/01/22 12:23:39;;;;;;;;;7.40;7.40;;;;;;;;5249703;28;8782;-82
2022/01/22 12:26:10;;;;;;;;;6.00;4.40;;;;;;;;5251058;28;8782;-83
2022/01/22 12:28:45;;;;;;;;;3.40;3.40;;;;;;;;5249608;28;8774;-82
2022/01/22 12:31:19;;;;;;;;;6.80;6.80;;;;;;;;5267507;28;8803;-79
2022/01/22 12:33:54;;;;;;;;;9.60;9.60;;;;;;;;5249387;28;8864;-79
2022/01/22 12:36:36;;;;;;;;;9.80;6.60;;;;;;;;5266313;28;8879;-77
2022/01/22 12:39:12;;;;;;;;;7.40;7.40;;;;;;;;5249568;28;8817;-80
2022/01/22 12:41:50;;;;;;;;;15.40;15.40;;;;;;;;5250219;28;8798;-78
2022/01/22 12:44:33;;;;;;;;;8.20;7.80;;;;;;;;5249327;28;8755;-77
2022/01/22 12:47:06;;;;;;;;;4.40;3.60;;;;;;;;5250020;28;9465;-82
2022/01/22 12:49:38;;;;;;;;;9.00;9.00;;;;;;;;5232577;28;9481;-78
2022/01/22 12:52:10;;;;;;;;;7.40;7.40;;;;;;;;5249912;28;8876;-81
2022/01/22 12:54:45;;;;;;;;;13.00;13.00;;;;;;;;5249104;28;8775;-79
2022/01/22 12:57:16;;;;;;;;;5.60;5.60;;;;;;;;5232371;28;8872;-81
2022/01/22 13:00:10;;;;;;;;;7.20;7.20;;;;;;;;5249734;28;8871;-79
2022/01/22 13:02:43;;;;;;;;;6.00;5.20;;;;;;;;5266661;28;8802;-81
2022/01/22 13:05:15;;;;;;;;;7.00;6.20;;;;;;;;5248949;28;8795;-69
2022/01/22 13:08:07;;;;;;;;;6.60;6.60;;;;;;;;5248837;28;8827;-82
2022/01/22 13:11:01;;;;;;;;;9.80;9.80;;;;;;;;5248655;28;8825;-82
2022/01/22 13:13:32;;;;;;;;;9.40;9.40;;;;;;;;5232708;28;9525;-81
2022/01/22 13:16:03;;;;;;;;;6.00;6.00;;;;;;;;5266015;28;9544;-83
2022/01/22 13:18:38;;;;;;;;;3.40;3.40;;;;;;;;5232101;28;8805;-82
2022/01/22 13:21:11;;;;;;;;;5.20;5.20;;;;;;;;5266248;28;8799;-83
2022/01/22 13:23:42;;;;;;;;;36.60;34.60;;;;;;;;5248571;28;9558;-79
2022/01/22 13:26:14;;;;;;;;;18.00;17.60;;;;;;;;5267137;28;8770;-81
2022/01/22 13:28:45;;;;;;;;;6.00;6.00;;;;;;;;5238497;28;9462;-83
2022/01/22 13:31:17;;;;;;;;;16.00;15.80;;;;;;;;5268963;28;8817;-82
2022/01/22 13:36:40;;;;;;;;;6.40;6.40;;;;;;;;5252123;28;8770;-82
2022/01/22 13:45:08;;;;;;;;;4.80;4.80;;;;;;;;5255606;28;8785;-80
2022/01/22 13:47:44;;;;;;;;;10.00;10.00;;;;;;;;5235901;28;8855;-80
2022/01/22 13:50:16;;;;;;;;;8.60;8.60;;;;;;;;5253353;28;8805;-76
2022/01/22 13:52:47;;;;;;;;;6.80;6.60;;;;;;;;5235668;28;8821;-80
2022/01/22 13:59:46;;;;;;;;;4.80;4.80;;;;;;;;5270068;28;8869;-79
2022/01/22 14:05:10;;;;;;;;;7.00;7.00;;;;;;;;5252238;28;8785;-77
2022/01/22 14:07:47;;;;;;;;;8.20;8.20;;;;;;;;5235167;28;9496;-77
2022/01/22 14:10:19;;;;;;;;;3.60;3.60;;;;;;;;5252864;28;8785;-80
2022/01/22 14:13:07;;;;;;;;;8.60;8.60;;;;;;;;5270093;28;8794;-81
2022/01/22 14:20:18;;;;;;;;;9.80;8.60;;;;;;;;5269043;28;8886;-80
2022/01/22 14:27:18;;;;;;;;;9.40;9.40;;;;;;;;5269422;28;8786;-78
2022/01/22 14:29:48;;;;;;;;;14.60;14.60;;;;;;;;5267754;28;8795;-79
2022/01/22 14:36:47;;;;;;;;;6.80;6.80;;;;;;;;5269070;28;8719;-81
2022/01/22 14:44:38;;;;;;;;;0.00;0.00;;;;;;;;5269302;28;8818;-82
2022/01/22 14:46:45;;;;;;;;;12.60;12.00;;;;;;;;5216525;28;8790;-80
2022/01/22 14:49:17;;;;;;;;;9.00;9.00;;;;;;;;5235293;28;8799;-82
2022/01/22 14:52:07;;;;;;;;;10.00;9.20;;;;;;;;5251489;28;8879;-80
2022/01/22 14:54:39;;;;;;;;;7.60;7.60;;;;;;;;5251482;28;8771;-79
2022/01/22 14:57:31;;;;;;;;;4.00;4.00;;;;;;;;5251112;28;8779;-81
2022/01/22 15:00:06;;;;;;;;;8.00;8.00;;;;;;;;5251258;28;8763;-81
2022/01/22 15:02:38;;;;;;;;;116.50;84.50;;;;;;;;5251751;28;8815;-83
2022/01/22 15:05:13;;;;;;;;;12.00;12.00;;;;;;;;5268877;28;8907;-82
2022/01/22 15:12:09;;;;;;;;;48.60;44.80;;;;;;;;5268847;28;8873;-82
2022/01/22 15:19:05;;;;;;;;;6.60;6.40;;;;;;;;5268124;28;8762;-84
2022/01/22 15:21:36;;;;;;;;;9.60;9.40;;;;;;;;5267786;28;8845;-82
2022/01/22 15:28:42;;;;;;;;;6.80;6.80;;;;;;;;5269805;28;8745;-81
2022/01/22 15:31:35;;;;;;;;;3.00;3.00;;;;;;;;5253498;28;8795;-79
2022/01/22 15:34:10;;;;;;;;;5.20;5.20;;;;;;;;5252528;28;8786;-79
2022/01/22 15:36:46;;;;;;;;;6.40;6.40;;;;;;;;5249751;28;8794;-81
2022/01/22 15:39:17;;;;;;;;;9.60;8.40;;;;;;;;5250701;28;9529;-80
2022/01/22 15:41:48;;;;;;;;;4.00;4.00;;;;;;;;5250442;28;8870;-82
2022/01/22 15:44:20;;;;;;;;;6.80;6.80;;;;;;;;5233794;28;8775;-81
2022/01/22 15:46:51;;;;;;;;;9.40;9.40;;;;;;;;5232923;28;8822;-84
2022/01/22 15:49:23;;;;;;;;;4.40;4.40;;;;;;;;5250052;28;8774;-77
2022/01/22 15:51:56;;;;;;;;;8.00;7.80;;;;;;;;5268331;28;8802;-77
2022/01/22 15:54:27;;;;;;;;;4.00;4.00;;;;;;;;5268078;28;8818;-78
2022/01/22 15:56:59;;;;;;;;;4.00;4.00;;;;;;;;5268195;28;8790;-81
2022/01/22 15:59:31;;;;;;;;;9.00;9.00;;;;;;;;5249468;28;8777;-81
2022/01/22 16:02:02;;;;;;;;;4.40;4.40;;;;;;;;5251648;28;8854;-82
2022/01/22 16:04:33;;;;;;;;;5.60;5.60;;;;;;;;5250551;28;8791;-82
2022/01/22 16:07:19;;;;;;;;;4.00;4.00;;;;;;;;5251323;28;8779;-81
2022/01/22 16:09:51;;;;;;;;;5.20;5.20;;;;;;;;5250432;28;8797;-80
2022/01/22 16:12:24;;;;;;;;;4.40;4.40;;;;;;;;5251066;28;8775;-80
2022/01/22 16:14:55;;;;;;;;;4.00;4.00;;;;;;;;5233395;28;9496;-78
2022/01/22 16:17:30;;;;;;;;;7.80;7.80;;;;;;;;5232666;28;8787;-78
2022/01/22 16:20:02;;;;;;;;;5.80;5.80;;;;;;;;5249754;28;8787;-79
2022/01/22 16:22:35;;;;;;;;;8.20;7.20;;;;;;;;5250353;28;8825;-79
2022/01/22 16:25:06;;;;;;;;;6.00;6.00;;;;;;;;5267374;28;9476;-83
2022/01/22 16:27:39;;;;;;;;;6.40;6.40;;;;;;;;5266718;28;8795;-81
2022/01/22 16:30:11;;;;;;;;;7.80;7.80;;;;;;;;5267339;28;8793;-77
2022/01/22 16:32:42;;;;;;;;;15.00;15.00;;;;;;;;5265594;28;8789;-78
2022/01/22 16:35:13;;;;;;;;;15.80;15.80;;;;;;;;5266941;28;8781;-80
2022/01/22 16:37:44;;;;;;;;;37.60;37.20;;;;;;;;5249253;28;8815;-81
2022/01/22 16:40:23;;;;;;;;;12.00;12.00;;;;;;;;5232578;28;8889;-80
2022/01/22 16:56:54;;;;;;;;;9.75;9.75;;;;;;;;5266787;28;8755;-81
2022/01/22 16:59:25;;;;;;;;;5.20;5.20;;;;;;;;5266848;28;8798;-80
2022/01/22 17:01:58;;;;;;;;;7.20;7.20;;;;;;;;5268892;28;8927;-78
2022/01/22 17:04:36;;;;;;;;;6.20;4.80;;;;;;;;5253009;28;8801;-81
2022/01/22 17:07:11;;;;;;;;;7.20;7.20;;;;;;;;5250544;28;8876;-79
2022/01/22 17:15:03;;;;;;;;;3.80;3.80;;;;;;;;5266790;28;12106;-80
2022/01/22 17:17:34;;;;;;;;;7.20;6.80;;;;;;;;5252694;28;8782;-80
2022/01/22 17:20:05;;;;;;;;;3.25;3.25;;;;;;;;5256468;28;8779;-81
2022/01/22 17:22:36;;;;;;;;;7.00;7.00;;;;;;;;5253719;28;11553;-81
2022/01/22 17:25:08;;;;;;;;;6.60;6.60;;;;;;;;5255293;28;8908;-79
2022/01/22 17:27:39;;;;;;;;;7.00;7.00;;;;;;;;5255382;28;8791;-80
2022/01/22 17:30:10;;;;;;;;;3.00;3.00;;;;;;;;5254335;28;8781;-81
2022/01/22 17:32:41;;;;;;;;;3.80;3.80;;;;;;;;5252701;28;8770;-80
2022/01/22 17:44:09;;;;;;;;;3.00;2.60;;;;;;;;5269796;28;8810;-81
2022/01/22 17:46:40;;;;;;;;;6.40;6.40;;;;;;;;5235610;28;8802;-81
2022/01/22 17:49:12;;;;;;;;;9.00;9.00;;;;;;;;5252483;28;8770;-80
2022/01/22 17:56:12;;;;;;;;;8.20;7.40;;;;;;;;5270602;28;8715;-80
2022/01/22 17:58:45;;;;;;;;;9.75;9.75;;;;;;;;5252231;28;8799;-79
2022/01/22 18:01:17;;;;;;;;;14.80;14.40;;;;;;;;5235736;28;10980;-79
2022/01/22 18:04:06;;;;;;;;;12.80;12.80;;;;;;;;5252194;28;8813;-82
2022/01/22 18:06:38;;;;;;;;;9.20;9.20;;;;;;;;5252307;28;8965;-81
2022/01/22 18:09:09;;;;;;;;;7.00;7.00;;;;;;;;5235583;28;8787;-80
2022/01/22 18:11:42;;;;;;;;;6.40;6.40;;;;;;;;5252168;28;8909;-80
2022/01/22 18:14:13;;;;;;;;;7.40;6.80;;;;;;;;5235163;28;8809;-77
2022/01/22 18:16:45;;;;;;;;;3.40;3.40;;;;;;;;5235297;28;8774;-80
2022/01/22 18:23:39;;;;;;;;;6.00;6.00;;;;;;;;5269292;28;9438;-80
2022/01/22 18:26:29;;;;;;;;;9.60;9.00;;;;;;;;5251356;28;8790;-78
2022/01/22 18:29:01;;;;;;;;;8.00;8.00;;;;;;;;5218353;28;8851;-79
2022/01/22 18:31:33;;;;;;;;;6.00;6.00;;;;;;;;5250841;28;8887;-78
2022/01/22 18:38:27;;;;;;;;;6.00;6.00;;;;;;;;5269379;28;8806;-80
2022/01/22 18:41:02;;;;;;;;;7.50;7.25;;;;;;;;5234600;28;8803;-78
2022/01/22 18:48:02;;;;;;;;;6.20;6.20;;;;;;;;5270296;28;8786;-80
2022/01/22 18:55:03;;;;;;;;;4.00;4.00;;;;;;;;5269438;28;8876;-80
2022/01/22 18:57:34;;;;;;;;;6.00;4.40;;;;;;;;5234883;28;8816;-80
2022/01/22 19:00:06;;;;;;;;;6.80;6.80;;;;;;;;5251930;28;8817;-81
2022/01/22 19:02:37;;;;;;;;;4.00;4.00;;;;;;;;5236226;28;8836;-81
2022/01/22 19:05:09;;;;;;;;;6.40;6.40;;;;;;;;5235530;28;8896;-81
2022/01/22 19:07:40;;;;;;;;;7.00;6.60;;;;;;;;5252130;28;8782;-80
2022/01/22 19:10:14;;;;;;;;;6.80;6.20;;;;;;;;5233700;28;8798;-80
2022/01/22 19:13:14;;;;;;;;;7.00;7.00;;;;;;;;5233926;28;8778;-81
2022/01/22 19:16:04;;;;;;;;;11.60;11.60;;;;;;;;5236923;28;8801;-79
2022/01/22 19:23:04;;;;;;;;;27.40;27.00;;;;;;;;5268419;28;11457;-78